Terminal Aerodrome Forecast
Issued by NWS Cleveland, OH

Home | Current Version | Previous Version | Text Only | Print | Product List | Glossary Off
Versions: 1 2 3 4 5 6 7 8 9 10 11 12 13 14 15 16 17 18 19 20 21 22 23 24 25 26 27 28 29

000
FTUS41 KCLE 161400 AAA
TAFCLE
TAF AMD
KCLE 161453Z 1615/1718 17008KT 3SM BR BKN022 OVC050
      TEMPO 1615/1617 -SHRA BR BKN018 OVC035
     FM161700 22010KT 5SM BR VCSH OVC008
     FM170400 25010G20KT P6SM OVC010
     FM171200 25014G22KT P6SM BKN015 OVC030=

USA.gov is the U.S. government's official web portal to all federal, state and local government web resources and services.